Lebanon, New Hampshire
Current Conditions -  °F | °C
As of 8:26 PM on Tuesday 21 Oct 2014 (Local Time) from KLEB Reporting Station
Haze Haze  
Wind Chill: 47°   Ceiling: 800
Heat Index: 49°   Visibility: 2mi
Dew Point: 45°   Wind: 5mph
Humidity: 86%   Direction: 40°NE
Pressure: 30.01"   Gusts: NA
Location:  43.64°N, 72.25°W
Report Text: KLEB 220026Z 04004KT 2SM BR SCT004 OVC008 09/07 A3001 RMK AO2 T00940072
Loading
Personal Weather Stations






























Interactive Weather Map New forecast layout! Learn more

10-Day Weather Forecast

Advertisements
Track Severe Weather on mobile